Time;durP1;ratioP1;P1;durP2;ratioP2;P2;SDS_P1;SDS_P2;PMS_P1;PMS_P2;Temp;Humidity;BMP_temperature;BMP_pressure;BME280_temperature;BME280_humidity;BME280_pressure;Samples;Min_cycle;Max_cycle;Signal;HPM_P1;HPM_P2
2023/05/19 00:01:27;;;;;;;14.20;5.78;;;10.30;48.90;;;;;;5051821;28;20437;-71
2023/05/19 00:03:57;;;;;;;11.45;5.72;;;10.00;51.20;;;;;;5052694;28;20431;-71
2023/05/19 00:06:30;;;;;;;16.25;6.05;;;10.10;52.10;;;;;;5052748;28;20930;-74
2023/05/19 00:09:02;;;;;;;11.52;5.93;;;10.10;51.60;;;;;;5053131;28;20432;-72
2023/05/19 00:11:28;;;;;;;21.10;6.47;;;9.90;52.90;;;;;;5063083;28;21008;-71
2023/05/19 00:13:55;;;;;;;13.70;5.93;;;9.90;53.80;;;;;;5054040;28;20393;-72
2023/05/19 00:16:22;;;;;;;12.25;5.60;;;10.00;53.00;;;;;;5062935;28;20819;-72
2023/05/19 00:18:48;;;;;;;12.82;5.97;;;10.10;52.20;;;;;;5060006;28;20404;-73
2023/05/19 00:21:14;;;;;;;16.13;6.10;;;10.30;50.50;;;;;;5058733;28;20409;-73
2023/05/19 00:23:40;;;;;;;15.05;6.10;;;10.20;51.30;;;;;;5057556;28;20381;-73
2023/05/19 00:26:05;;;;;;;12.43;5.70;;;10.00;52.00;;;;;;5056778;28;20754;-72
2023/05/19 00:28:31;;;;;;;16.60;6.13;;;10.00;53.20;;;;;;5055451;28;20395;-70
2023/05/19 00:30:56;;;;;;;13.07;5.70;;;10.00;53.30;;;;;;5058756;28;20754;-72
2023/05/19 00:33:22;;;;;;;12.33;5.90;;;9.90;53.30;;;;;;5058435;28;20396;-71
2023/05/19 00:35:47;;;;;;;11.97;6.00;;;9.80;55.30;;;;;;5059070;28;20396;-74
2023/05/19 00:38:13;;;;;;;12.33;6.60;;;9.80;55.40;;;;;;5060202;28;20779;-72
2023/05/19 00:40:39;;;;;;;12.60;6.33;;;9.70;55.90;;;;;;5060637;28;20672;-73
2023/05/19 00:43:04;;;;;;;16.42;6.80;;;9.70;56.20;;;;;;5059175;28;20378;-73
2023/05/19 00:45:30;;;;;;;18.10;7.40;;;9.50;57.80;;;;;;5059788;28;20382;-73
2023/05/19 00:47:56;;;;;;;16.17;7.00;;;9.20;60.50;;;;;;5054773;28;20439;-72
2023/05/19 00:50:23;;;;;;;13.70;6.83;;;9.30;61.30;;;;;;5053737;28;20393;-72
2023/05/19 00:52:49;;;;;;;18.33;7.07;;;9.20;61.30;;;;;;5052920;28;20548;-72
2023/05/19 00:55:15;;;;;;;17.27;6.93;;;9.40;60.20;;;;;;5053077;28;20477;-71
2023/05/19 00:57:42;;;;;;;16.10;6.90;;;9.70;57.90;;;;;;5054228;28;20508;-74
2023/05/19 01:00:10;;;;;;;11.00;6.78;;;9.60;57.20;;;;;;5054894;28;20739;-72
2023/05/19 01:02:38;;;;;;;10.93;6.30;;;9.50;59.50;;;;;;5054056;28;20447;-73
2023/05/19 01:05:05;;;;;;;16.08;6.30;;;9.60;58.60;;;;;;5053301;28;20382;-72
2023/05/19 01:07:31;;;;;;;12.23;6.75;;;9.60;58.60;;;;;;5053103;28;20445;-73
2023/05/19 01:09:57;;;;;;;12.82;5.90;;;9.60;58.70;;;;;;5052343;28;20382;-73
2023/05/19 01:12:23;;;;;;;15.18;6.60;;;9.60;58.50;;;;;;5051828;28;20396;-72
2023/05/19 01:14:48;;;;;;;14.00;6.53;;;9.60;59.40;;;;;;5052895;28;20388;-72
2023/05/19 01:17:29;;;;;;;14.93;6.20;;;9.50;60.00;;;;;;5052441;28;20428;-73
2023/05/19 01:20:15;;;;;;;15.63;6.30;;;9.60;59.40;;;;;;5051904;28;20382;-72
2023/05/19 01:22:59;;;;;;;12.23;6.13;;;9.60;58.70;;;;;;5051059;28;20471;-72
2023/05/19 01:25:52;;;;;;;12.55;6.60;;;9.60;58.40;;;;;;5051958;28;20385;-73
2023/05/19 01:28:44;;;;;;;18.10;6.57;;;9.60;59.10;;;;;;5051434;28;20374;-73
2023/05/19 01:31:11;;;;;;;14.70;6.67;;;9.50;60.10;;;;;;5050743;28;20957;-72
2023/05/19 01:33:39;;;;;;;12.85;6.43;;;9.60;59.60;;;;;;5051396;28;20441;-71
2023/05/19 01:36:07;;;;;;;15.52;6.65;;;9.40;61.10;;;;;;5051364;28;20472;-72
2023/05/19 01:38:33;;;;;;;13.07;6.70;;;9.40;61.10;;;;;;5052131;28;20389;-72
2023/05/19 01:41:02;;;;;;;13.85;6.65;;;9.40;61.00;;;;;;5032963;28;20406;-71
2023/05/19 01:43:28;;;;;;;13.43;6.90;;;9.40;61.30;;;;;;5061970;28;20373;-71
2023/05/19 01:45:56;;;;;;;15.77;6.53;;;9.50;60.50;;;;;;5067387;28;20932;-72
2023/05/19 01:48:22;;;;;;;17.42;6.95;;;9.30;61.60;;;;;;5063408;28;20439;-73
2023/05/19 01:50:47;;;;;;;14.50;6.65;;;9.30;63.30;;;;;;5051130;28;20420;-73
2023/05/19 01:53:13;;;;;;;14.40;6.70;;;9.30;61.80;;;;;;5051647;28;20901;-71
2023/05/19 01:55:46;;;;;;;17.07;7.40;;;9.30;61.70;;;;;;5051003;28;20381;-72
2023/05/19 01:58:47;;;;;;;15.68;6.72;;;9.30;62.40;;;;;;5049946;28;20428;-72
2023/05/19 02:01:48;;;;;;;18.27;7.07;;;9.20;63.10;;;;;;5050175;28;20428;-73
2023/05/19 02:04:20;;;;;;;16.97;7.00;;;9.20;63.10;;;;;;5038134;28;20427;-74
2023/05/19 02:07:20;;;;;;;16.05;7.10;;;9.20;64.10;;;;;;5049919;28;20397;-74
2023/05/19 02:10:14;;;;;;;15.88;7.35;;;9.10;65.00;;;;;;5046823;28;20485;-73
2023/05/19 02:12:40;;;;;;;15.85;7.20;;;8.80;68.00;;;;;;5050048;28;20377;-73
2023/05/19 02:15:18;;;;;;;14.77;7.85;;;8.80;68.20;;;;;;5050051;28;20780;-71
2023/05/19 02:17:47;;;;;;;15.73;7.70;;;8.60;71.30;;;;;;5032631;28;20939;-71
2023/05/19 02:20:13;;;;;;;14.73;7.60;;;8.60;70.80;;;;;;5050063;28;20437;-73
2023/05/19 02:22:39;;;;;;;13.27;7.47;;;8.60;70.80;;;;;;5050098;28;20405;-72
2023/05/19 02:25:05;;;;;;;14.20;7.53;;;8.80;68.80;;;;;;5050578;28;20386;-72
2023/05/19 02:27:31;;;;;;;15.48;7.53;;;8.80;68.90;;;;;;5050415;28;20428;-72
2023/05/19 02:29:57;;;;;;;18.90;7.90;;;8.70;69.60;;;;;;5050303;28;20845;-74
2023/05/19 02:32:22;;;;;;;16.63;8.00;;;8.90;68.30;;;;;;5049930;28;20412;-72
2023/05/19 02:34:48;;;;;;;14.00;7.17;;;8.90;67.20;;;;;;5050187;28;20476;-70
2023/05/19 02:37:14;;;;;;;15.43;7.50;;;8.90;67.30;;;;;;5050084;28;20428;-73
2023/05/19 02:39:40;;;;;;;15.32;7.88;;;8.90;67.30;;;;;;5051234;28;20893;-71
2023/05/19 02:42:06;;;;;;;16.97;7.50;;;8.90;67.00;;;;;;5053286;28;20405;-71
2023/05/19 02:44:32;;;;;;;14.25;7.80;;;9.00;65.40;;;;;;5053953;28;20388;-70
2023/05/19 02:46:57;;;;;;;20.20;6.85;;;9.00;65.20;;;;;;5054002;28;20424;-70
2023/05/19 02:49:23;;;;;;;13.43;7.43;;;9.00;65.00;;;;;;5053636;28;20385;-72
2023/05/19 02:51:48;;;;;;;14.90;8.03;;;9.00;65.10;;;;;;5053172;28;20381;-71
2023/05/19 02:54:14;;;;;;;17.30;7.83;;;9.00;64.80;;;;;;5053802;28;20382;-71
2023/05/19 02:56:39;;;;;;;16.00;7.93;;;9.00;64.80;;;;;;5053662;28;20417;-72
2023/05/19 02:59:05;;;;;;;15.50;7.50;;;9.00;64.50;;;;;;5053681;28;20385;-72
2023/05/19 03:01:36;;;;;;;17.63;8.27;;;8.90;65.40;;;;;;5053072;28;20489;-73
2023/05/19 03:04:02;;;;;;;13.57;7.75;;;8.70;67.70;;;;;;5061567;28;20388;-73
2023/05/19 03:06:28;;;;;;;17.10;8.25;;;8.50;70.10;;;;;;5068660;28;20389;-73
2023/05/19 03:08:53;;;;;;;19.20;8.43;;;8.30;72.80;;;;;;5069202;28;20746;-74
2023/05/19 03:11:19;;;;;;;15.60;8.33;;;8.40;73.90;;;;;;5068941;28;20401;-73
2023/05/19 03:13:45;;;;;;;17.40;8.25;;;8.50;71.60;;;;;;5069916;28;20386;-73
2023/05/19 03:16:10;;;;;;;16.50;8.68;;;8.50;72.10;;;;;;5060182;28;20421;-71
2023/05/19 03:18:36;;;;;;;13.45;8.45;;;8.70;69.30;;;;;;5053856;28;20744;-72
2023/05/19 03:21:02;;;;;;;18.73;9.00;;;8.70;69.00;;;;;;5052378;28;20421;-72
2023/05/19 03:23:28;;;;;;;18.03;9.03;;;8.70;68.80;;;;;;5053192;28;20874;-72
2023/05/19 03:25:54;;;;;;;18.80;8.97;;;8.70;68.00;;;;;;5053195;28;20381;-72
2023/05/19 03:28:22;;;;;;;20.70;8.82;;;8.70;68.50;;;;;;5053018;28;20400;-73
2023/05/19 03:30:49;;;;;;;22.20;9.60;;;8.60;69.20;;;;;;5052946;28;20409;-70
2023/05/19 03:33:15;;;;;;;19.10;9.38;;;8.40;71.40;;;;;;5052434;28;20841;-72
2023/05/19 03:35:40;;;;;;;16.70;9.00;;;8.20;74.70;;;;;;5052912;28;20390;-72
2023/05/19 03:38:06;;;;;;;17.88;9.02;;;8.10;75.50;;;;;;5053218;28;20426;-71
2023/05/19 03:40:31;;;;;;;19.30;9.00;;;8.30;75.90;;;;;;5052480;28;20442;-71
2023/05/19 03:42:57;;;;;;;21.73;9.60;;;8.60;71.30;;;;;;5052148;28;20384;-72
2023/05/19 03:45:22;;;;;;;23.67;9.23;;;8.60;70.50;;;;;;5052791;28;20424;-73
2023/05/19 03:47:48;;;;;;;21.05;8.80;;;8.70;69.50;;;;;;5052765;28;20386;-72
2023/05/19 03:50:13;;;;;;;21.42;9.50;;;8.70;68.60;;;;;;5052594;28;20389;-72
2023/05/19 03:52:44;;;;;;;22.70;9.50;;;8.80;67.90;;;;;;5052439;28;20424;-73
2023/05/19 03:55:09;;;;;;;20.98;9.55;;;8.60;68.40;;;;;;5052650;28;20386;-72
2023/05/19 03:57:35;;;;;;;18.40;9.73;;;8.60;70.40;;;;;;5052303;28;20377;-72
2023/05/19 04:00:05;;;;;;;19.50;9.40;;;8.70;69.90;;;;;;5067204;22;21302;-72
2023/05/19 04:02:30;;;;;;;21.60;9.68;;;8.60;69.70;;;;;;5051632;28;20447;-74
2023/05/19 04:04:56;;;;;;;16.83;9.00;;;8.50;71.40;;;;;;5051959;28;20849;-74
2023/05/19 04:07:22;;;;;;;14.93;8.70;;;8.70;69.10;;;;;;5052544;28;20525;-74
2023/05/19 04:09:48;;;;;;;18.20;9.20;;;8.70;69.80;;;;;;5052705;28;20822;-74
2023/05/19 04:12:14;;;;;;;15.85;9.60;;;8.70;68.90;;;;;;5051979;28;20397;-75
2023/05/19 04:14:39;;;;;;;20.23;9.02;;;8.70;68.30;;;;;;5052925;28;20878;-74
2023/05/19 04:17:05;;;;;;;14.07;9.18;;;8.80;68.30;;;;;;5052481;28;20400;-74
2023/05/19 04:19:31;;;;;;;18.42;9.02;;;8.80;67.60;;;;;;5052892;28;20890;-74
2023/05/19 04:21:56;;;;;;;15.68;8.73;;;8.80;66.40;;;;;;5051265;28;20415;-73
2023/05/19 04:24:22;;;;;;;23.43;9.33;;;8.80;66.90;;;;;;5053593;28;20397;-73
2023/05/19 04:26:47;;;;;;;18.10;8.97;;;8.90;66.60;;;;;;5051415;28;20392;-74
2023/05/19 04:29:16;;;;;;;19.63;9.57;;;8.80;67.70;;;;;;5051819;28;20408;-74
2023/05/19 04:31:45;;;;;;;16.23;8.90;;;8.90;68.10;;;;;;5051095;28;20427;-74
2023/05/19 04:34:10;;;;;;;22.52;8.60;;;8.90;68.60;;;;;;5051388;28;20381;-74
2023/05/19 04:36:36;;;;;;;20.20;9.30;;;8.90;66.80;;;;;;5051537;28;20468;-74
2023/05/19 04:39:06;;;;;;;21.60;8.68;;;9.00;65.60;;;;;;5051555;28;20901;-74
2023/05/19 04:41:32;;;;;;;15.63;8.93;;;9.10;65.40;;;;;;5050928;28;20401;-73
2023/05/19 04:43:58;;;;;;;17.23;7.90;;;9.10;64.60;;;;;;5051408;28;20385;-73
2023/05/19 04:46:24;;;;;;;15.43;8.40;;;9.10;63.30;;;;;;5051161;28;20904;-74
2023/05/19 04:48:51;;;;;;;13.98;7.60;;;9.20;63.60;;;;;;5051823;28;20389;-74
2023/05/19 04:51:18;;;;;;;20.08;8.10;;;9.30;62.90;;;;;;5051354;28;20785;-74
2023/05/19 04:53:44;;;;;;;13.65;7.63;;;9.40;60.70;;;;;;5051904;28;20392;-73
2023/05/19 04:56:13;;;;;;;18.20;8.33;;;9.50;59.80;;;;;;5051285;28;20472;-74
2023/05/19 04:58:40;;;;;;;16.67;7.70;;;9.50;59.60;;;;;;5034170;28;20381;-74
2023/05/19 05:01:06;;;;;;;16.45;7.22;;;9.60;58.80;;;;;;5050238;28;20421;-74
2023/05/19 05:03:33;;;;;;;17.93;8.07;;;9.60;58.00;;;;;;5050471;28;20738;-74
2023/05/19 05:05:58;;;;;;;23.38;8.57;;;9.70;57.20;;;;;;5050956;28;20384;-73
2023/05/19 05:08:24;;;;;;;20.73;7.65;;;9.80;56.30;;;;;;5050717;28;20754;-75
2023/05/19 05:10:51;;;;;;;21.73;7.50;;;9.90;55.90;;;;;;5051128;28;20373;-73
2023/05/19 05:13:20;;;;;;;12.55;6.30;;;9.90;55.80;;;;;;5051137;28;20393;-74
2023/05/19 05:15:46;;;;;;;14.67;6.40;;;10.00;54.90;;;;;;5051100;28;20389;-74
2023/05/19 05:18:12;;;;;;;14.45;6.40;;;10.20;53.20;;;;;;5033429;28;20389;-74
2023/05/19 05:20:38;;;;;;;17.05;6.50;;;10.30;52.50;;;;;;5050858;28;20393;-74
2023/05/19 05:23:04;;;;;;;15.73;6.40;;;10.30;52.40;;;;;;5050692;28;20419;-74
2023/05/19 05:25:30;;;;;;;18.55;6.30;;;10.40;51.70;;;;;;5050623;28;20396;-74
2023/05/19 05:27:57;;;;;;;14.77;6.70;;;10.50;50.80;;;;;;5050294;28;20393;-73
2023/05/19 05:30:23;;;;;;;15.52;6.20;;;10.60;50.00;;;;;;5050424;28;20829;-74
2023/05/19 05:32:48;;;;;;;16.10;5.77;;;10.70;48.00;;;;;;5049978;28;20385;-76
2023/05/19 05:35:14;;;;;;;13.90;6.00;;;10.80;48.10;;;;;;5050508;28;20404;-74
2023/05/19 05:37:40;;;;;;;10.52;6.05;;;10.80;48.10;;;;;;5050533;28;20389;-74
2023/05/19 05:40:06;;;;;;;14.27;6.47;;;11.00;46.30;;;;;;5050416;28;20447;-74
2023/05/19 05:42:32;;;;;;;15.45;5.93;;;11.00;47.20;;;;;;5049742;28;20405;-74
2023/05/19 05:44:57;;;;;;;16.73;5.97;;;11.10;46.00;;;;;;5050676;28;20469;-74
2023/05/19 05:47:23;;;;;;;14.47;6.17;;;11.10;45.40;;;;;;5051454;28;20399;-76
2023/05/19 05:49:49;;;;;;;16.13;6.00;;;11.20;44.70;;;;;;5051425;28;20570;-74
2023/05/19 05:52:17;;;;;;;11.80;5.70;;;11.30;45.30;;;;;;5047568;28;20397;-72
2023/05/19 05:54:43;;;;;;;15.97;5.87;;;11.40;43.90;;;;;;5073116;28;20385;-73
2023/05/19 05:57:09;;;;;;;10.55;5.30;;;11.50;44.00;;;;;;5056491;28;20466;-75
2023/05/19 05:59:35;;;;;;;13.77;5.80;;;11.70;41.60;;;;;;5051014;28;20489;-74
2023/05/19 06:02:00;;;;;;;14.93;5.33;;;11.80;41.00;;;;;;5049799;28;20409;-75
2023/05/19 06:04:26;;;;;;;13.23;5.97;;;11.90;39.60;;;;;;5032406;28;20389;-73
2023/05/19 06:06:52;;;;;;;12.47;5.53;;;12.00;39.20;;;;;;5050253;28;20880;-74
2023/05/19 06:09:17;;;;;;;16.27;5.40;;;12.10;38.20;;;;;;5050233;28;20480;-74
2023/05/19 06:11:43;;;;;;;9.57;5.13;;;12.20;36.90;;;;;;5049917;28;20389;-75
2023/05/19 06:14:09;;;;;;;13.13;5.53;;;12.20;37.10;;;;;;5052702;28;20381;-75
2023/05/19 06:16:34;;;;;;;15.30;5.80;;;12.20;37.00;;;;;;5054850;28;20388;-73
2023/05/19 06:19:00;;;;;;;15.00;5.93;;;12.40;37.10;;;;;;5055071;28;20388;-74
2023/05/19 06:21:25;;;;;;;12.73;5.60;;;12.40;36.20;;;;;;5053650;28;20491;-74
2023/05/19 06:23:51;;;;;;;14.70;5.90;;;12.60;35.50;;;;;;5054051;28;20377;-75
2023/05/19 06:26:16;;;;;;;14.63;5.45;;;12.60;34.60;;;;;;5036182;28;20905;-76
2023/05/19 06:28:42;;;;;;;12.10;5.00;;;12.70;34.00;;;;;;5054226;28;20423;-75
2023/05/19 06:31:07;;;;;;;12.15;5.10;;;12.80;34.20;;;;;;5053432;28;20461;-75
2023/05/19 06:33:33;;;;;;;12.37;5.40;;;13.00;33.70;;;;;;5054011;28;20980;-74
2023/05/19 06:35:59;;;;;;;15.10;5.77;;;13.10;32.90;;;;;;5054004;28;20893;-73
2023/05/19 06:38:24;;;;;;;16.20;5.07;;;13.20;32.90;;;;;;5053726;28;20390;-74
2023/05/19 06:40:50;;;;;;;15.23;5.50;;;13.30;32.00;;;;;;5053527;28;20935;-73
2023/05/19 06:43:15;;;;;;;12.95;5.00;;;13.40;31.10;;;;;;5053275;28;20438;-74
2023/05/19 06:45:41;;;;;;;11.60;5.88;;;13.50;30.80;;;;;;5053979;28;20439;-73
2023/05/19 06:48:06;;;;;;;19.98;5.80;;;13.60;30.60;;;;;;5035695;28;20498;-75
2023/05/19 06:50:32;;;;;;;17.70;5.80;;;13.70;30.20;;;;;;5053642;28;20385;-75
2023/05/19 06:52:57;;;;;;;16.90;5.40;;;13.80;29.90;;;;;;5053056;28;20401;-75
2023/05/19 06:55:23;;;;;;;13.70;5.40;;;13.90;28.50;;;;;;5053282;28;20385;-72
2023/05/19 06:57:49;;;;;;;12.20;5.15;;;14.10;29.20;;;;;;5054240;28;20893;-74
2023/05/19 07:00:15;;;;;;;12.68;5.35;;;14.20;27.40;;;;;;5054749;28;20398;-72
2023/05/19 07:02:41;;;;;;;13.40;5.07;;;14.30;26.90;;;;;;5054083;28;20771;-74
2023/05/19 07:05:07;;;;;;;12.47;4.60;;;14.40;25.80;;;;;;5053909;28;20377;-73
2023/05/19 07:07:32;;;;;;;11.48;4.95;;;14.50;25.50;;;;;;5053144;28;20389;-73
2023/05/19 07:09:58;;;;;;;12.20;4.97;;;14.60;25.10;;;;;;5053751;28;20389;-73
2023/05/19 07:12:25;;;;;;;14.17;4.87;;;14.80;24.90;;;;;;5053011;28;20897;-73
2023/05/19 07:14:51;;;;;;;14.10;4.90;;;15.00;24.80;;;;;;5035952;28;20963;-73
2023/05/19 07:17:16;;;;;;;11.15;4.60;;;15.10;23.70;;;;;;5066465;28;20854;-74
2023/05/19 07:19:42;;;;;;;12.30;4.25;;;15.20;23.00;;;;;;5070727;28;20392;-73
2023/05/19 07:22:08;;;;;;;11.37;4.27;;;15.30;20.70;;;;;;5070486;28;20425;-73
2023/05/19 07:24:33;;;;;;;12.40;4.47;;;15.50;20.70;;;;;;5057277;28;20761;-75
2023/05/19 07:26:59;;;;;;;10.57;4.20;;;15.50;20.30;;;;;;5054534;28;20476;-75
2023/05/19 07:29:24;;;;;;;14.30;4.60;;;15.50;19.90;;;;;;5055356;28;20425;-74
2023/05/19 07:31:56;;;;;;;11.77;3.67;;;15.50;19.70;;;;;;5037116;28;20389;-74
2023/05/19 07:34:22;;;;;;;13.90;4.38;;;15.50;19.10;;;;;;5054154;28;20385;-75
2023/05/19 07:36:48;;;;;;;9.13;3.90;;;15.60;19.50;;;;;;5053540;28;20377;-73
2023/05/19 07:39:13;;;;;;;12.90;4.32;;;15.70;19.10;;;;;;5052835;28;20396;-75
2023/05/19 07:41:39;;;;;;;12.03;4.10;;;15.70;19.00;;;;;;5052178;28;20405;-74
2023/05/19 07:44:06;;;;;;;11.40;4.17;;;15.70;19.60;;;;;;5053380;28;20394;-74
2023/05/19 07:46:33;;;;;;;12.07;4.18;;;15.80;19.80;;;;;;5058069;28;20741;-73
2023/05/19 07:49:05;;;;;;;10.83;4.00;;;15.80;19.50;;;;;;5039961;28;20482;-73
2023/05/19 07:51:30;;;;;;;12.48;4.13;;;15.80;19.30;;;;;;5058409;28;20386;-73
2023/05/19 07:53:56;;;;;;;9.90;3.90;;;16.00;18.40;;;;;;5063274;28;20465;-74
2023/05/19 07:56:23;;;;;;;13.67;4.30;;;16.00;19.90;;;;;;5060421;28;20389;-74
2023/05/19 07:58:49;;;;;;;7.33;3.40;;;16.10;18.40;;;;;;5064915;28;20385;-73
2023/05/19 08:01:14;;;;;;;12.43;3.90;;;16.00;17.90;;;;;;5061944;28;20409;-74
2023/05/19 08:03:40;;;;;;;11.18;3.60;;;16.00;18.70;;;;;;5053718;28;20389;-74
2023/05/19 08:06:05;;;;;;;11.70;3.75;;;16.00;18.70;;;;;;5052605;28;20736;-73
2023/05/19 08:08:32;;;;;;;11.63;3.90;;;15.80;18.20;;;;;;5052250;28;20396;-74
2023/05/19 08:11:01;;;;;;;10.10;4.90;;;15.80;19.50;;;;;;5051679;28;20374;-73
2023/05/19 08:13:27;;;;;;;9.70;3.63;;;15.90;19.60;;;;;;5052171;28;20465;-73
2023/05/19 08:15:58;;;;;;;7.28;3.50;;;16.20;19.00;;;;;;5034387;28;20476;-75
2023/05/19 08:18:24;;;;;;;15.15;3.85;;;16.30;17.30;;;;;;5053440;28;20373;-74
2023/05/19 08:20:50;;;;;;;11.50;3.47;;;16.20;17.30;;;;;;5052333;28;20460;-72
2023/05/19 08:23:16;;;;;;;10.63;3.70;;;16.20;17.90;;;;;;5051762;28;20469;-75
2023/05/19 08:25:42;;;;;;;8.00;3.40;;;16.30;17.60;;;;;;5052220;28;20392;-74
2023/05/19 08:28:08;;;;;;;10.53;3.77;;;16.30;17.20;;;;;;5051508;28;20451;-73
2023/05/19 08:30:33;;;;;;;12.37;3.83;;;16.30;17.70;;;;;;5052170;28;20381;-73
2023/05/19 08:32:59;;;;;;;9.40;3.60;;;16.40;17.90;;;;;;5051156;28;20403;-74
2023/05/19 08:35:24;;;;;;;23.07;4.90;;;16.60;16.50;;;;;;5051805;28;20385;-73
2023/05/19 08:37:50;;;;;;;7.67;3.33;;;16.70;16.00;;;;;;5032464;28;20393;-73
2023/05/19 08:40:17;;;;;;;7.15;3.28;;;16.70;16.30;;;;;;5051247;28;20834;-73
2023/05/19 08:42:44;;;;;;;12.13;3.60;;;16.70;15.70;;;;;;5050817;28;20405;-73
2023/05/19 08:45:10;;;;;;;10.90;3.70;;;16.90;15.30;;;;;;5051517;28;20870;-72
2023/05/19 08:47:35;;;;;;;8.05;3.30;;;17.10;15.50;;;;;;5050877;28;20382;-73
2023/05/19 08:50:06;;;;;;;7.90;2.85;;;17.10;15.90;;;;;;5051220;28;20430;-73
2023/05/19 08:52:50;;;;;;;11.52;3.38;;;17.20;15.00;;;;;;5050440;28;20396;-72
2023/05/19 08:55:26;;;;;;;9.02;2.92;;;17.30;14.80;;;;;;5050968;28;20411;-72
2023/05/19 08:58:02;;;;;;;10.63;3.00;;;17.40;14.60;;;;;;5087999;27;20348;-75
2023/05/19 09:00:28;;;;;;;7.90;3.28;;;17.20;13.90;;;;;;5087602;28;20383;-75
2023/05/19 09:02:55;;;;;;;8.50;3.10;;;17.30;13.50;;;;;;5087137;28;20381;-75
2023/05/19 09:05:22;;;;;;;6.80;2.97;;;17.30;12.20;;;;;;5087645;28;20796;-75
2023/05/19 09:07:47;;;;;;;11.48;3.65;;;17.50;12.90;;;;;;5087489;28;20387;-74
2023/05/19 09:10:15;;;;;;;6.37;3.17;;;17.50;13.10;;;;;;5103041;22;20585;-75
2023/05/19 09:12:45;;;;;;;7.40;2.80;;;17.50;12.60;;;;;;5087595;28;20450;-73
2023/05/19 09:15:12;;;;;;;7.60;3.33;;;17.70;12.60;;;;;;5089689;28;20379;-74
2023/05/19 09:17:38;;;;;;;15.18;3.20;;;17.70;11.40;;;;;;5089419;28;21011;-75
2023/05/19 09:20:11;;;;;;;13.20;3.92;;;17.60;11.90;;;;;;5102129;28;20477;-75
2023/05/19 09:22:42;;;;;;;12.82;3.45;;;17.70;13.10;;;;;;5109032;28;20887;-74
2023/05/19 09:25:23;;;;;;;10.85;3.15;;;17.70;11.70;;;;;;5109331;28;20382;-73
2023/05/19 09:27:49;;;;;;;8.57;3.10;;;17.90;11.60;;;;;;5109056;28;20718;-73
2023/05/19 09:30:16;;;;;;;9.70;3.50;;;17.90;10.70;;;;;;5108885;28;20719;-74
2023/05/19 09:32:42;;;;;;;8.50;2.50;;;17.90;10.50;;;;;;5108745;28;20384;-73
2023/05/19 09:35:08;;;;;;;6.35;2.67;;;17.90;10.10;;;;;;5109005;28;20391;-73
2023/05/19 09:37:34;;;;;;;6.28;2.72;;;18.00;10.10;;;;;;5109084;28;20393;-73
2023/05/19 09:40:00;;;;;;;9.40;3.40;;;17.90;10.70;;;;;;5113259;28;20378;-73
2023/05/19 09:42:27;;;;;;;4.70;2.60;;;17.90;11.10;;;;;;5121300;28;20389;-74
2023/05/19 09:45:02;;;;;;;8.05;3.10;;;17.90;10.80;;;;;;5124436;28;20374;-73
2023/05/19 09:47:38;;;;;;;8.23;3.00;;;18.00;11.50;;;;;;5118481;28;20377;-72
2023/05/19 09:50:07;;;;;;;12.40;3.67;;;18.00;11.70;;;;;;5117010;28;20370;-75
2023/05/19 09:52:37;;;;;;;8.52;3.00;;;18.10;11.80;;;;;;5113695;28;20377;-74
2023/05/19 09:55:08;;;;;;;9.60;3.33;;;18.20;11.70;;;;;;5108805;28;20385;-73
2023/05/19 09:57:38;;;;;;;7.65;3.30;;;18.40;11.70;;;;;;5108174;28;20398;-72
2023/05/19 10:00:13;;;;;;;7.90;2.92;;;18.50;11.00;;;;;;5108590;28;20882;-73
2023/05/19 10:02:41;;;;;;;10.77;3.45;;;18.60;10.70;;;;;;5107466;28;20386;-74
2023/05/19 10:05:09;;;;;;;6.20;3.40;;;18.40;10.60;;;;;;5108128;28;20373;-75
2023/05/19 10:07:36;;;;;;;10.02;3.70;;;18.20;12.30;;;;;;5105331;28;20411;-75
2023/05/19 10:10:02;;;;;;;12.57;3.53;;;18.30;13.10;;;;;;5093773;28;20467;-73
2023/05/19 10:12:29;;;;;;;8.32;3.15;;;18.50;12.30;;;;;;5094453;28;20415;-75
2023/05/19 10:14:55;;;;;;;12.82;3.05;;;18.40;10.90;;;;;;5094558;28;20390;-74
2023/05/19 10:17:22;;;;;;;11.02;3.00;;;18.20;11.10;;;;;;5093810;28;20404;-74
2023/05/19 10:19:51;;;;;;;8.73;2.75;;;18.10;10.60;;;;;;5092515;28;20724;-73
2023/05/19 10:22:17;;;;;;;9.03;3.37;;;18.00;12.00;;;;;;5093474;28;20739;-73
2023/05/19 10:24:43;;;;;;;13.75;3.78;;;18.00;11.40;;;;;;5094164;28;20450;-75
2023/05/19 10:27:13;;;;;;;11.60;4.57;;;18.30;12.20;;;;;;5093232;28;20386;-74
2023/05/19 10:29:41;;;;;;;8.77;3.80;;;18.50;12.10;;;;;;5093426;28;20858;-73
2023/05/19 10:32:15;;;;;;;11.80;3.00;;;18.70;10.60;;;;;;5092575;28;20893;-73
2023/05/19 10:35:27;;;;;;;10.65;3.75;;;19.00;10.90;;;;;;5093726;28;20894;-74
2023/05/19 10:38:03;;;;;;;9.25;3.13;;;19.10;10.50;;;;;;5093683;28;20468;-73
2023/05/19 10:40:35;;;;;;;6.30;3.08;;;19.10;10.30;;;;;;5093789;28;20785;-74
2023/05/19 10:43:22;;;;;;;8.75;3.30;;;18.90;10.50;;;;;;5093284;28;20469;-74
2023/05/19 10:45:52;;;;;;;5.15;2.80;;;19.00;10.10;;;;;;5094282;28;20392;-74
2023/05/19 10:48:19;;;;;;;8.95;2.85;;;19.00;10.70;;;;;;5093855;28;20745;-73
2023/05/19 10:50:46;;;;;;;11.25;3.17;;;19.00;9.00;;;;;;5092241;28;20789;-73
2023/05/19 10:53:21;;;;;;;8.02;2.90;;;18.90;9.70;;;;;;5093052;28;20385;-74
2023/05/19 10:55:52;;;;;;;12.40;3.47;;;19.00;10.10;;;;;;5093352;28;20381;-75
2023/05/19 10:58:40;;;;;;;7.82;3.05;;;19.20;10.20;;;;;;5094381;28;20393;-73
2023/05/19 11:01:16;;;;;;;9.20;3.05;;;19.20;9.80;;;;;;5092110;28;20553;-74
2023/05/19 11:03:50;;;;;;;12.40;3.20;;;19.10;9.10;;;;;;5093258;28;20412;-73
2023/05/19 11:06:30;;;;;;;6.60;2.90;;;19.10;9.60;;;;;;5092916;28;20413;-73
2023/05/19 11:09:17;;;;;;;8.30;2.60;;;19.10;8.80;;;;;;5092570;28;20486;-73
2023/05/19 11:11:50;;;;;;;12.15;4.00;;;19.00;9.80;;;;;;5092041;28;20956;-73
2023/05/19 11:14:21;;;;;;;7.78;3.10;;;19.00;10.10;;;;;;5092067;28;20397;-74
2023/05/19 11:16:49;;;;;;;9.40;3.22;;;19.20;9.30;;;;;;5093513;28;20409;-75
2023/05/19 11:19:26;;;;;;;9.80;3.35;;;19.20;9.80;;;;;;5091172;28;20383;-74
2023/05/19 11:21:56;;;;;;;5.60;2.70;;;19.40;9.30;;;;;;5093455;28;20395;-74
2023/05/19 11:24:45;;;;;;;13.85;3.80;;;19.40;8.00;;;;;;5093338;28;20442;-75
2023/05/19 11:27:19;;;;;;;6.60;2.95;;;19.40;9.90;;;;;;5092911;28;20421;-75
2023/05/19 11:29:47;;;;;;;9.00;3.58;;;19.60;9.40;;;;;;5091892;28;20397;-74
2023/05/19 11:32:13;;;;;;;9.98;3.30;;;19.60;8.20;;;;;;5091897;28;20392;-73
2023/05/19 11:34:39;;;;;;;13.23;5.33;;;19.60;8.00;;;;;;5093159;28;20478;-73
2023/05/19 11:37:07;;;;;;;12.38;3.50;;;19.70;8.50;;;;;;5091761;28;20754;-73
2023/05/19 11:39:33;;;;;;;7.90;3.30;;;20.00;9.00;;;;;;5092712;28;20405;-73
2023/05/19 11:41:59;;;;;;;7.33;3.00;;;20.00;8.30;;;;;;5093445;28;20388;-74
2023/05/19 11:44:24;;;;;;;9.27;3.40;;;20.20;8.70;;;;;;5097833;28;20941;-74
2023/05/19 11:46:50;;;;;;;8.65;3.33;;;20.30;8.10;;;;;;5095086;28;20893;-72
2023/05/19 11:49:16;;;;;;;8.05;2.80;;;20.40;8.70;;;;;;5092574;28;20382;-75
2023/05/19 11:51:45;;;;;;;9.73;3.40;;;20.40;6.70;;;;;;5092347;28;20455;-75
2023/05/19 11:54:11;;;;;;;5.97;2.95;;;20.30;7.40;;;;;;5091987;28;20398;-73
2023/05/19 11:56:41;;;;;;;12.68;3.50;;;20.00;6.60;;;;;;5092188;28;20405;-74
2023/05/19 11:59:07;;;;;;;8.97;3.70;;;20.00;8.50;;;;;;5091953;28;20976;-73
2023/05/19 12:01:33;;;;;;;8.95;3.33;;;20.10;8.10;;;;;;5090863;28;20809;-73
2023/05/19 12:03:59;;;;;;;8.50;3.22;;;20.00;6.90;;;;;;5091718;28;20461;-74
2023/05/19 12:06:26;;;;;;;9.88;3.08;;;19.90;7.20;;;;;;5091493;28;20386;-74
2023/05/19 12:08:53;;;;;;;9.83;2.90;;;20.00;7.10;;;;;;5091757;28;20404;-75
2023/05/19 12:11:19;;;;;;;9.07;3.20;;;20.00;7.70;;;;;;5091790;28;20386;-73
2023/05/19 12:13:45;;;;;;;9.10;3.50;;;20.00;8.10;;;;;;5092274;28;20382;-73
2023/05/19 12:16:11;;;;;;;6.88;2.80;;;19.90;7.60;;;;;;5094405;28;20522;-73
2023/05/19 12:18:37;;;;;;;15.93;5.00;;;19.80;7.60;;;;;;5105011;28;20386;-73
2023/05/19 12:21:04;;;;;;;13.30;3.55;;;20.20;8.50;;;;;;5101152;28;20458;-74
2023/05/19 12:23:30;;;;;;;7.50;3.15;;;20.50;7.60;;;;;;5100599;28;20389;-73
2023/05/19 12:25:57;;;;;;;6.70;2.78;;;20.60;7.90;;;;;;5094763;28;20793;-75
2023/05/19 12:28:23;;;;;;;8.18;3.30;;;20.30;6.40;;;;;;5091959;28;20392;-73
2023/05/19 12:30:51;;;;;;;11.70;3.47;;;20.30;8.70;;;;;;5092355;28;20382;-75
2023/05/19 12:33:18;;;;;;;11.23;3.20;;;20.40;8.30;;;;;;5092100;28;20746;-74
2023/05/19 12:35:45;;;;;;;12.75;4.05;;;20.50;7.60;;;;;;5092230;28;20868;-75
2023/05/19 12:38:11;;;;;;;8.20;3.63;;;20.70;8.00;;;;;;5092517;28;20467;-74
2023/05/19 12:40:38;;;;;;;9.70;3.30;;;20.90;7.80;;;;;;5091735;28;20374;-73
2023/05/19 12:43:04;;;;;;;9.35;3.05;;;21.20;6.20;;;;;;5090230;28;20386;-73
2023/05/19 12:45:34;;;;;;;10.65;3.28;;;20.80;6.40;;;;;;5091769;28;20397;-73
2023/05/19 12:48:03;;;;;;;8.23;3.20;;;20.70;8.10;;;;;;5091471;28;20849;-74
2023/05/19 12:50:29;;;;;;;11.68;3.60;;;20.60;6.60;;;;;;5091135;28;20900;-73